createdAt,value
2022-08-14T00:00:36.844Z,1.30
2022-08-14T00:03:40.723Z,1.63
2022-08-14T00:06:42.951Z,1.55
2022-08-14T00:10:01.390Z,1.40
2022-08-14T00:13:10.366Z,1.70
2022-08-14T00:16:41.341Z,1.20
2022-08-14T00:19:36.656Z,1.50
2022-08-14T00:22:57.235Z,1.48
2022-08-14T00:26:06.792Z,1.70
2022-08-14T00:29:14.530Z,1.50
2022-08-14T00:32:52.652Z,1.33
2022-08-14T00:36:33.911Z,2.03
2022-08-14T00:38:59.265Z,1.60
2022-08-14T00:42:02.241Z,1.50
2022-08-14T00:45:06.153Z,1.75
2022-08-14T00:48:07.667Z,4.38
2022-08-14T00:51:09.867Z,5.25
2022-08-14T00:57:28.145Z,2.97
2022-08-14T01:00:37.599Z,1.98
2022-08-14T01:03:44.851Z,2.00
2022-08-14T01:06:46.836Z,1.90
2022-08-14T01:09:58.626Z,1.48
2022-08-14T01:13:00.215Z,1.63
2022-08-14T01:16:05.645Z,1.60
2022-08-14T01:19:27.584Z,1.50
2022-08-14T01:22:29.618Z,2.00
2022-08-14T01:28:54.183Z,1.45
2022-08-14T01:32:00.345Z,1.60
2022-08-14T01:35:17.636Z,1.40
2022-08-14T01:38:24.116Z,1.40
2022-08-14T01:41:30.175Z,1.67
2022-08-14T01:44:34.544Z,1.30
2022-08-14T01:47:37.144Z,1.50
2022-08-14T01:50:39.308Z,1.40
2022-08-14T01:53:47.883Z,1.60
2022-08-14T01:56:56.863Z,1.70
2022-08-14T01:59:58.773Z,1.45
2022-08-14T02:06:04.153Z,1.98
2022-08-14T02:09:24.227Z,1.45
2022-08-14T02:12:29.234Z,1.70
2022-08-14T02:15:31.045Z,1.42
2022-08-14T02:18:33.428Z,1.55
2022-08-14T02:24:47.867Z,1.50
2022-08-14T02:28:24.521Z,1.67
2022-08-14T02:31:14.886Z,1.55
2022-08-14T02:34:22.285Z,1.60
2022-08-14T02:37:46.438Z,1.75
2022-08-14T02:40:49.222Z,1.40
2022-08-14T02:43:51.256Z,1.58
2022-08-14T02:46:53.886Z,1.70
2022-08-14T02:50:03.460Z,1.83
2022-08-14T02:53:05.825Z,1.42
2022-08-14T02:56:30.770Z,1.83
2022-08-14T03:02:56.363Z,1.80
2022-08-14T03:05:57.783Z,1.83
2022-08-14T03:08:59.924Z,1.83
2022-08-14T03:12:02.565Z,1.90
2022-08-14T03:15:16.275Z,1.90
2022-08-14T03:18:31.907Z,1.42
2022-08-14T03:21:34.473Z,1.35
2022-08-14T03:24:36.681Z,1.50
2022-08-14T03:27:48.431Z,1.92
2022-08-14T03:31:00.481Z,1.90
2022-08-14T03:34:03.214Z,1.70
2022-08-14T03:37:39.185Z,1.60
2022-08-14T03:40:26.691Z,2.03
2022-08-14T03:43:32.611Z,1.77
2022-08-14T03:46:52.405Z,1.90
2022-08-14T03:49:56.422Z,2.05
2022-08-14T03:53:01.536Z,1.80
2022-08-14T03:56:04.709Z,1.92
2022-08-14T03:59:17.851Z,1.80
2022-08-14T04:02:37.227Z,1.85
2022-08-14T04:05:43.387Z,1.58
2022-08-14T04:08:52.333Z,1.52
2022-08-14T04:11:54.396Z,1.80
2022-08-14T04:14:58.438Z,1.90
2022-08-14T04:18:05.715Z,3.85
2022-08-14T04:21:10.307Z,1.77
2022-08-14T04:24:14.369Z,1.83
2022-08-14T04:27:19.186Z,2.00
2022-08-14T04:30:24.185Z,1.90
2022-08-14T04:33:33.109Z,2.15
2022-08-14T04:36:55.019Z,2.05
2022-08-14T04:40:15.360Z,1.93
2022-08-14T04:43:38.487Z,1.80
2022-08-14T04:46:56.789Z,1.70
2022-08-14T04:49:59.261Z,2.50
2022-08-14T04:53:04.888Z,2.13
2022-08-14T04:56:30.065Z,2.20
2022-08-14T04:59:28.315Z,2.53
2022-08-14T05:02:31.541Z,2.38
2022-08-14T05:05:36.198Z,2.50
2022-08-14T05:08:56.951Z,2.08
2022-08-14T05:13:12.906Z,2.30
2022-08-14T05:15:22.562Z,2.13
2022-08-14T05:18:37.157Z,1.92
2022-08-14T05:21:57.783Z,2.22
2022-08-14T05:25:04.120Z,2.05
2022-08-14T05:28:21.749Z,2.10
2022-08-14T05:31:24.103Z,2.38
2022-08-14T05:34:41.014Z,2.03
2022-08-14T05:37:47.417Z,2.20
2022-08-14T05:40:49.372Z,2.30
2022-08-14T05:43:51.339Z,2.45
2022-08-14T05:46:52.859Z,1.75
2022-08-14T05:49:59.672Z,3.20
2022-08-14T05:53:01.416Z,2.83
2022-08-14T05:56:03.369Z,2.15
2022-08-14T05:59:05.604Z,1.83
2022-08-14T06:02:10.010Z,2.40
2022-08-14T06:05:12.158Z,2.10
2022-08-14T06:08:31.391Z,2.53
2022-08-14T06:11:38.081Z,2.13
2022-08-14T06:14:39.588Z,2.13
2022-08-14T06:17:46.359Z,2.70
2022-08-14T06:20:57.320Z,2.40
2022-08-14T06:23:59.540Z,2.78
2022-08-14T06:27:04.267Z,2.88
2022-08-14T06:30:08.237Z,2.58
2022-08-14T06:33:12.953Z,2.10
2022-08-14T06:36:20.325Z,2.20
2022-08-14T06:39:36.648Z,1.83
2022-08-14T06:42:39.923Z,2.88
2022-08-14T06:45:43.573Z,3.03
2022-08-14T06:48:52.216Z,3.03
2022-08-14T06:51:56.752Z,3.65
2022-08-14T06:54:58.336Z,3.35
2022-08-14T06:58:00.752Z,3.20
2022-08-14T07:01:27.734Z,2.58
2022-08-14T07:04:48.170Z,2.95
2022-08-14T07:07:49.674Z,2.58
2022-08-14T07:10:54.280Z,2.55
2022-08-14T07:13:57.761Z,1.40
2022-08-14T07:16:59.237Z,2.08
2022-08-14T07:20:02.851Z,1.60
2022-08-14T07:23:08.553Z,1.30
2022-08-14T07:26:10.998Z,1.50
2022-08-14T07:29:14.911Z,1.58
2022-08-14T07:32:22.220Z,1.58
2022-08-14T07:35:42.803Z,1.42
2022-08-14T07:41:59.665Z,1.50
2022-08-14T07:45:03.523Z,1.40
2022-08-14T07:48:06.247Z,1.38
2022-08-14T07:51:11.432Z,1.42
2022-08-14T07:54:16.374Z,1.45
2022-08-14T07:57:22.471Z,1.23
2022-08-14T08:00:31.263Z,1.20
2022-08-14T08:03:35.909Z,1.40
2022-08-14T08:06:38.244Z,1.38
2022-08-14T08:09:47.440Z,1.50
2022-08-14T08:12:55.539Z,1.20
2022-08-14T08:15:57.644Z,1.42
2022-08-14T08:19:05.464Z,1.27
2022-08-14T08:22:14.860Z,1.23
2022-08-14T08:25:18.022Z,1.42
2022-08-14T08:28:25.167Z,1.25
2022-08-14T08:31:32.670Z,1.63
2022-08-14T08:34:45.456Z,1.30
2022-08-14T08:37:48.308Z,1.40
2022-08-14T08:40:56.889Z,1.35
2022-08-14T08:44:05.536Z,1.13
2022-08-14T08:47:08.078Z,1.10
2022-08-14T08:53:38.802Z,1.05
2022-08-14T08:56:48.099Z,1.23
2022-08-14T08:59:55.169Z,1.40
2022-08-14T09:03:03.188Z,1.10
2022-08-14T09:06:53.988Z,1.13
2022-08-14T09:09:33.221Z,0.98
2022-08-14T09:12:51.665Z,1.17
2022-08-14T09:15:54.044Z,1.30
2022-08-14T09:18:56.690Z,1.27
2022-08-14T09:21:59.047Z,1.17
2022-08-14T09:25:00.555Z,1.00
2022-08-14T09:28:03.251Z,1.15
2022-08-14T09:31:11.940Z,1.17
2022-08-14T09:34:39.461Z,1.23
2022-08-14T09:38:15.424Z,1.27
2022-08-14T09:41:27.052Z,1.05
2022-08-14T09:44:57.425Z,1.13
2022-08-14T09:48:01.863Z,1.10
2022-08-14T09:54:19.693Z,1.08
2022-08-14T09:57:27.625Z,1.33
2022-08-14T10:00:52.770Z,1.00
2022-08-14T10:03:56.292Z,1.33
2022-08-14T10:07:01.279Z,1.05
2022-08-14T10:10:03.884Z,1.20
2022-08-14T10:13:25.514Z,1.40
2022-08-14T10:16:33.264Z,1.33
2022-08-14T10:19:36.511Z,1.35
2022-08-14T10:23:21.694Z,1.35
2022-08-14T10:26:05.337Z,1.20
2022-08-14T10:29:20.275Z,1.23
2022-08-14T10:32:29.207Z,1.30
2022-08-14T10:35:47.823Z,1.48
2022-08-14T10:38:56.549Z,1.40
2022-08-14T10:42:16.501Z,1.10
2022-08-14T10:45:21.893Z,1.50
2022-08-14T10:48:37.107Z,1.98
2022-08-14T10:51:43.601Z,1.60
2022-08-14T10:54:47.402Z,1.30
2022-08-14T10:57:50.567Z,1.60
2022-08-14T11:00:57.830Z,1.60
2022-08-14T11:03:59.453Z,1.63
2022-08-14T11:07:01.386Z,2.17
2022-08-14T11:10:09.317Z,2.20
2022-08-14T11:13:17.429Z,1.70
2022-08-14T11:16:19.621Z,1.95
2022-08-14T11:19:21.734Z,1.48
2022-08-14T11:22:56.153Z,1.40
2022-08-14T11:25:52.901Z,1.50
2022-08-14T11:28:56.784Z,1.55
2022-08-14T11:32:01.450Z,1.90
2022-08-14T11:35:03.832Z,1.63
2022-08-14T11:38:07.411Z,1.30
2022-08-14T11:41:09.655Z,1.40
2022-08-14T11:44:17.531Z,1.75
2022-08-14T11:47:22.728Z,1.50
2022-08-14T11:50:37.357Z,1.50
2022-08-14T11:53:42.278Z,1.60
2022-08-14T11:56:45.665Z,1.48
2022-08-14T11:59:47.819Z,1.40
2022-08-14T12:03:02.735Z,1.70
2022-08-14T12:06:29.439Z,1.48
2022-08-14T12:09:33.628Z,1.30
2022-08-14T12:12:36.644Z,1.60
2022-08-14T12:15:38.185Z,1.42
2022-08-14T12:18:48.492Z,1.48
2022-08-14T12:21:51.754Z,1.60
2022-08-14T12:24:55.203Z,1.40
2022-08-14T12:27:59.168Z,1.33
2022-08-14T12:31:01.329Z,1.52
2022-08-14T12:34:10.268Z,1.23
2022-08-14T12:37:11.993Z,1.42
2022-08-14T12:40:14.281Z,1.38
2022-08-14T12:43:21.756Z,1.65
2022-08-14T12:46:35.230Z,1.52
2022-08-14T12:49:37.388Z,1.42
2022-08-14T12:52:53.940Z,1.40
2022-08-14T12:56:22.417Z,1.50
2022-08-14T12:59:29.790Z,1.58
2022-08-14T13:02:37.448Z,1.48
2022-08-14T13:05:38.993Z,1.50
2022-08-14T13:08:52.672Z,1.35
2022-08-14T13:11:58.782Z,1.33
2022-08-14T13:15:17.854Z,1.33
2022-08-14T13:18:21.064Z,1.40
2022-08-14T13:21:26.326Z,1.40
2022-08-14T13:24:28.093Z,1.60
2022-08-14T13:27:29.604Z,1.52
2022-08-14T13:30:33.804Z,1.15
2022-08-14T13:33:35.868Z,1.90
2022-08-14T13:36:54.899Z,1.08
2022-08-14T13:39:58.998Z,1.38
2022-08-14T13:43:02.180Z,1.45
2022-08-14T13:46:03.859Z,1.50
2022-08-14T13:49:12.156Z,1.40
2022-08-14T13:55:42.403Z,1.33
2022-08-14T13:58:46.869Z,1.42
2022-08-14T14:01:51.655Z,1.30
2022-08-14T14:04:53.577Z,1.30
2022-08-14T14:07:57.176Z,1.30
2022-08-14T14:10:58.841Z,1.35
2022-08-14T14:14:01.463Z,1.33
2022-08-14T14:17:03.381Z,1.63
2022-08-14T14:20:15.263Z,1.50
2022-08-14T14:23:34.896Z,1.70
2022-08-14T14:26:36.692Z,1.40
2022-08-14T14:29:43.253Z,1.50
2022-08-14T14:33:01.926Z,1.33
2022-08-14T14:36:06.293Z,1.35
2022-08-14T14:39:08.851Z,1.42
2022-08-14T14:42:13.558Z,1.30
2022-08-14T14:45:20.869Z,1.60
2022-08-14T14:48:23.396Z,1.73
2022-08-14T14:51:29.984Z,1.73
2022-08-14T14:54:37.416Z,1.70
2022-08-14T14:57:40.987Z,1.83
2022-08-14T15:00:46.187Z,2.00
2022-08-14T15:03:48.080Z,2.10
2022-08-14T15:06:54.071Z,1.85
2022-08-14T15:09:55.599Z,2.33
2022-08-14T15:13:03.780Z,1.85
2022-08-14T15:16:07.711Z,2.00
2022-08-14T15:19:12.440Z,2.33
2022-08-14T15:22:16.284Z,2.50
2022-08-14T15:25:18.628Z,2.10
2022-08-14T15:28:21.774Z,2.15
2022-08-14T15:31:24.640Z,2.40
2022-08-14T15:34:43.498Z,2.45
2022-08-14T15:37:55.717Z,1.80
2022-08-14T15:41:01.867Z,3.42
2022-08-14T15:44:03.626Z,2.75
2022-08-14T15:47:09.407Z,2.80
2022-08-14T15:50:12.809Z,2.58
2022-08-14T15:53:14.786Z,3.00
2022-08-14T15:56:32.844Z,2.60
2022-08-14T15:59:56.887Z,3.15
2022-08-14T16:03:00.378Z,2.72
2022-08-14T16:06:05.066Z,2.63
2022-08-14T16:09:11.101Z,2.97
2022-08-14T16:12:12.870Z,2.65
2022-08-14T16:15:16.751Z,2.47
2022-08-14T16:18:20.034Z,2.25
2022-08-14T16:21:21.715Z,2.72
2022-08-14T16:24:28.120Z,2.70
2022-08-14T16:27:38.778Z,3.30
2022-08-14T16:30:51.439Z,2.58
2022-08-14T16:34:00.076Z,2.60
2022-08-14T16:37:03.213Z,2.30
2022-08-14T16:40:05.032Z,2.60
2022-08-14T16:43:13.073Z,2.50
2022-08-14T16:46:18.375Z,2.45
2022-08-14T16:49:26.045Z,2.95
2022-08-14T16:52:54.694Z,3.08
2022-08-14T16:56:17.052Z,3.33
2022-08-14T16:59:30.648Z,3.10
2022-08-14T17:02:46.442Z,2.60
2022-08-14T17:05:49.262Z,2.70
2022-08-14T17:08:50.849Z,2.72
2022-08-14T17:11:58.223Z,2.92
2022-08-14T17:15:14.811Z,2.97
2022-08-14T17:18:41.297Z,4.13
2022-08-14T17:21:47.141Z,3.13
2022-08-14T17:24:58.202Z,6.43
2022-08-14T17:31:58.304Z,2.95
2022-08-14T17:34:54.117Z,2.58
2022-08-14T17:37:57.069Z,2.30
2022-08-14T17:41:18.502Z,2.45
2022-08-14T17:47:46.518Z,2.35
2022-08-14T17:50:58.480Z,2.47
2022-08-14T17:54:04.216Z,2.85
2022-08-14T17:57:14.920Z,2.47
2022-08-14T18:00:17.479Z,2.28
2022-08-14T18:03:50.420Z,2.03
2022-08-14T18:10:51.792Z,2.20
2022-08-14T18:13:52.058Z,2.85
2022-08-14T18:16:51.036Z,2.30
2022-08-14T18:19:52.604Z,2.13
2022-08-14T18:22:54.108Z,2.63
2022-08-14T18:25:56.178Z,2.53
2022-08-14T18:28:59.197Z,2.63
2022-08-14T18:32:00.741Z,2.40
2022-08-14T18:35:03.820Z,2.10
2022-08-14T18:38:25.349Z,2.40
2022-08-14T18:41:37.154Z,2.22
2022-08-14T18:48:18.753Z,2.38
2022-08-14T18:51:25.695Z,2.25
2022-08-14T18:54:48.636Z,2.33
2022-08-14T18:58:00.901Z,2.47
2022-08-14T19:01:04.621Z,2.78
2022-08-14T19:04:08.289Z,2.88
2022-08-14T19:07:16.766Z,2.55
2022-08-14T19:10:31.794Z,2.80
2022-08-14T19:13:48.772Z,2.97
2022-08-14T19:16:53.754Z,2.60
2022-08-14T19:20:07.160Z,2.28
2022-08-14T19:23:21.935Z,2.72
2022-08-14T19:26:35.252Z,2.83
2022-08-14T19:29:39.907Z,2.92
2022-08-14T19:32:41.629Z,2.92
2022-08-14T19:35:55.372Z,2.70
2022-08-14T19:39:01.914Z,2.70
2022-08-14T19:42:10.330Z,2.80
2022-08-14T19:45:14.336Z,2.35
2022-08-14T19:48:16.160Z,2.75
2022-08-14T19:51:17.689Z,2.80
2022-08-14T19:57:22.616Z,3.08
2022-08-14T20:00:29.530Z,2.45
2022-08-14T20:04:00.548Z,3.08
2022-08-14T20:07:08.836Z,2.40
2022-08-14T20:11:03.174Z,2.75
2022-08-14T20:14:10.552Z,3.10
2022-08-14T20:17:15.148Z,2.95
2022-08-14T20:20:30.925Z,2.83
2022-08-14T20:23:38.094Z,2.95
2022-08-14T20:26:46.888Z,3.13
2022-08-14T20:30:34.689Z,3.10
2022-08-14T20:33:47.684Z,2.65
2022-08-14T20:36:49.651Z,2.80
2022-08-14T20:39:54.419Z,3.10
2022-08-14T20:43:15.163Z,3.47
2022-08-14T20:46:18.036Z,2.80
2022-08-14T20:49:27.755Z,3.33
2022-08-14T20:52:29.231Z,2.47
2022-08-14T20:55:36.450Z,2.42
2022-08-14T20:58:45.837Z,2.72
2022-08-14T21:02:00.431Z,2.40
2022-08-14T21:05:22.545Z,3.22
2022-08-14T21:08:37.096Z,2.50
2022-08-14T21:11:40.162Z,2.80
2022-08-14T21:14:51.839Z,2.92
2022-08-14T21:17:56.048Z,2.65
2022-08-14T21:20:58.194Z,2.70
2022-08-14T21:24:00.391Z,3.40
2022-08-14T21:27:13.111Z,2.80
2022-08-14T21:30:46.898Z,3.00
2022-08-14T21:33:47.012Z,2.75
2022-08-14T21:36:58.572Z,3.13
2022-08-14T21:40:00.568Z,3.35
2022-08-14T21:43:02.171Z,2.80
2022-08-14T21:46:03.665Z,3.05
2022-08-14T21:49:20.562Z,2.78
2022-08-14T21:52:49.559Z,2.50
2022-08-14T21:55:43.650Z,3.05
2022-08-14T21:58:52.612Z,2.60
2022-08-14T22:02:00.195Z,2.93
2022-08-14T22:05:05.391Z,2.70
2022-08-14T22:08:12.460Z,3.13
2022-08-14T22:11:15.548Z,2.40
2022-08-14T22:14:25.439Z,2.55
2022-08-14T22:17:32.386Z,2.67
2022-08-14T22:20:36.287Z,2.70
2022-08-14T22:23:37.914Z,2.65
2022-08-14T22:29:46.533Z,2.80
2022-08-14T22:32:58.419Z,2.60
2022-08-14T22:36:02.008Z,2.55
2022-08-14T22:39:10.824Z,3.10
2022-08-14T22:42:19.528Z,3.17
2022-08-14T22:45:23.978Z,2.30
2022-08-14T22:48:25.465Z,2.50
2022-08-14T22:51:30.935Z,2.75
2022-08-14T22:54:52.520Z,2.65
2022-08-14T22:57:55.135Z,2.70
2022-08-14T23:00:56.632Z,2.80
2022-08-14T23:03:59.129Z,2.95
2022-08-14T23:07:04.804Z,2.63
2022-08-14T23:10:32.639Z,2.38
2022-08-14T23:13:30.592Z,3.20
2022-08-14T23:16:32.842Z,2.75
2022-08-14T23:19:34.972Z,3.55
2022-08-14T23:22:36.827Z,3.00
2022-08-14T23:25:59.573Z,3.03
2022-08-14T23:29:06.951Z,2.50
2022-08-14T23:32:15.554Z,2.92
2022-08-14T23:38:30.805Z,2.60
2022-08-14T23:41:46.848Z,2.72
2022-08-14T23:44:55.601Z,2.65
2022-08-14T23:47:58.877Z,2.72
2022-08-14T23:51:02.387Z,2.45
2022-08-14T23:54:03.989Z,2.30
2022-08-14T23:57:05.510Z,3.00
